• Join FlightAware (Why Join?)
  • Login
  • US Flag 
04:35PM EDT


 

Airport Tracker/Info


-or-


 

Live Flight TrackerFlight Track Log ✈ FIN666 ✈ 01-Oct-2013 ✈ EKCH / CPH - EFHK / HEL

Flight Track Log - Related Links

Times and Time Zones

All times are in EDT time to prevent confusion due to time zone crossing. See the FIN666 flight status page for this flight to view local times or setup timezone preferences in your user account.

Time Position Orientation Groundspeed Altitude Reporting Facility
EDT Latitude Longitude Course Direction KTS MPH feet Rate Location/Type
07:37AM 55.8420 13.1192 49° Northeast  Level Estimated
07:38AM 55.9164 13.2747 50° Northeast  Level Estimated
07:39AM 55.9905 13.4309 50° Northeast  Level Estimated
07:40AM 56.0634 13.5855 50° Northeast  Level Estimated
07:41AM 56.1361 13.7406 50° Northeast  Level Estimated
07:42AM 56.2085 13.8964 50° Northeast  Level Estimated
07:43AM 56.2808 14.0527 50° Northeast  Level Estimated
07:44AM 56.3530 14.2096 50° Northeast  Level Estimated
07:45AM 56.4249 14.3671 50° Northeast  Level Estimated
07:46AM 56.4966 14.5253 51° Northeast  Level Estimated
07:47AM 56.5681 14.6840 51° Northeast  Level Estimated
07:48AM 56.6394 14.8433 51° Northeast  Level Estimated
07:49AM 56.7104 15.0032 51° Northeast  Level Estimated
07:50AM 56.7813 15.1637 51° Northeast  Level Estimated
07:51AM 56.8520 15.3248 51° Northeast  Level Estimated
07:52AM 56.9225 15.4865 51° Northeast  Level Estimated
07:53AM 56.9927 15.6489 51° Northeast  Level Estimated
07:54AM 57.0628 15.8118 52° Northeast  Level Estimated
07:55AM 57.1326 15.9754 52° Northeast  Level Estimated
07:56AM 57.2023 16.1396 52° Northeast  Level Estimated
07:57AM 57.2717 16.3044 52° Northeast  Level Estimated
07:58AM 57.3409 16.4698 52° Northeast  Level Estimated
07:59AM 57.4099 16.6359 52° Northeast  Level Estimated
08:00AM 57.4786 16.8025 52° Northeast  Level Estimated
08:01AM 57.5471 16.9699 53° Northeast  Level Estimated
08:02AM 57.6155 17.1378 53° Northeast  Level Estimated
08:03AM 57.6836 17.3063 53° Northeast  Level Estimated
08:04AM 57.7514 17.4755 53° Northeast  Level Estimated
08:05AM 57.8191 17.6454 53° Northeast  Level Estimated
08:06AM 57.8865 17.8158 53° Northeast  Level Estimated
08:07AM 57.9537 17.9869 53° Northeast  Level Estimated
08:08AM 58.0206 18.1587 54° Northeast  Level Estimated
08:09AM 58.0873 18.3311 54° Northeast  Level Estimated
08:10AM 58.1538 18.5041 54° Northeast  Level Estimated
08:11AM 58.2201 18.6778 54° Northeast  Level Estimated
08:12AM 58.2861 18.8521 54° Northeast  Level Estimated
08:13AM 58.3519 19.0271 54° Northeast  Level Estimated
08:14AM 58.4174 19.2028 54° Northeast  Level Estimated
08:15AM 58.4827 19.3791 55° Northeast  Level Estimated
08:16AM 58.5478 19.5560 55° Northeast  Level Estimated
08:17AM 58.6126 19.7336 55° Northeast  Level Estimated
08:18AM 58.6771 19.9119 55° Northeast  Level Estimated
08:19AM 58.7415 20.0908 55° Northeast  Level Estimated
08:20AM 58.8055 20.2704 55° Northeast  Level Estimated
08:21AM 58.8693 20.4506 56° Northeast  Level Estimated
08:22AM 58.9329 20.6315 56° Northeast  Level Estimated
08:23AM 58.9962 20.8131 56° Northeast  Level Estimated
08:24AM 59.0593 20.9953 56° Northeast  Level Estimated
08:25AM 59.1221 21.1783 56° Northeast  Level Estimated
08:26AM 59.1846 21.3618 56° Northeast  Level Estimated
08:27AM 59.2469 21.5461 56° Northeast  Level Estimated
08:28AM 59.3089 21.7310 57° Northeast  Level Estimated
08:29AM 59.3707 21.9166 57° Northeast  Level Estimated
08:30AM 59.4322 22.1029 57° Northeast  Level Estimated
08:31AM 59.4934 22.2899 57° Northeast  Level Estimated
08:32AM 59.5544 22.4775 57° Northeast  Level Estimated
08:33AM 59.6151 22.6658 57° Northeast  Level Estimated
08:34AM 59.6755 22.8548 58° Northeast  Level Estimated
08:35AM 59.7356 23.0445 58° Northeast  Level Estimated
08:36AM 59.7955 23.2348 58° Northeast  Level Estimated
08:37AM 59.8551 23.4259 58° Northeast  Level Estimated
08:38AM 59.9144 23.6176 58° Northeast  Level Estimated
08:39AM 59.9734 23.8100 58° Northeast  Level Estimated
08:40AM 60.0322 24.0031 59° Northeast  Level Estimated
08:41AM 60.0907 24.1969 59° Northeast  Level Estimated
08:42AM 60.1489 24.3913 59° Northeast  Level Estimated
08:43AM 60.2068 24.5865 59° Northeast  Level Estimated
08:44AM 60.2644 24.7823 59° Northeast  Level Estimated
08:45AM 60.3172 24.9633 59° Northeast  Level Estimated
08:46AM 60.3172 24.9633 37° Northeast  Level Estimated
08:47AM 60.3172 24.9633 37° Northeast  Level Estimated
08:48AM 60.3172 24.9633 37° Northeast  Level Estimated
08:49AM 60.3172 24.9633 37° Northeast  Level Estimated
08:50AM 60.3172 24.9633 37° Northeast  Level Estimated
08:51AM 60.3172 24.9633 37° Northeast  Level Estimated
08:52AM 60.3172 24.9633 37° Northeast  Level Estimated
08:53AM 60.3172 24.9633 37° Northeast  Level Estimated
08:54AM 60.3172 24.9633 37° Northeast  Level Estimated
08:55AM 60.3172 24.9633 37° Northeast  Level Estimated
08:56AM 60.3172 24.9633 37° Northeast  Level Estimated
08:57AM 60.3172 24.9633 37° Northeast  Level Estimated
08:58AM 60.3172 24.9633 37° Northeast  Level Estimated
08:59AM 60.3172 24.9633 37° Northeast  Level Estimated
09:00AM 60.3172 24.9633 37° Northeast  Level Estimated
09:01AM 60.3172 24.9633 37° Northeast  Level Estimated